Vancouver Fireboat 1 — VFB1 — position and weather

sailwx.info

Track history (hours):
 
Tides and Currents Weather Stations Pressure Air Temp Water Temp Dewpoint Dewpoint Depression Visibility Wind Speed Wind Dir Waves Ship Positions

Vancouver Fireboat 1

Last reported at 2018-Aug-14 02:56 UTC. Time now 2018-Aug-14 15:18 UTC.
Position N 45°37' W 122°38'.

Type: . MMSI: 338166967.

Date/timePositionNaut miles runAvg speedWind from/ knotsBaromVisibWave heightAir tempDewpointWater temp
2018-Aug-14 02:56N 45°37' W 122°38'1 3.1
2018-Aug-14 02:28N 45°37' W 122°40'912.6
2018-Aug-14 01:43N 45°34' W 122°27'517.9
2018-Aug-14 01:25N 45°36' W 122°34'3 3.6
2018-Aug-14 00:35N 45°37' W 122°38'1 6.0
2018-Aug-14 00:28N 45°37' W 122°39'1 1.5
2018-Aug-13 23:40N 45°37' W 122°40'210.7
2018-Aug-13 23:29N 45°36' W 122°38'  
2018-Aug-10 19:27N 45°37' W 122°38'2 2.3
2018-Aug-10 18:26N 45°37' W 122°41'0 0.1
2018-Aug-10 17:50N 45°37' W 122°41'3 2.3
2018-Aug-10 16:46N 45°37' W 122°38'4 9.8
2018-Aug-10 16:19N 45°35' W 122°32'  
2018-Aug-07 23:09N 45°37' W 122°38'0 0.0
2018-Aug-06 18:36N 45°37' W 122°38'213.3
2018-Aug-06 18:29N 45°37' W 122°40'5 9.6
2018-Aug-06 18:00N 45°35' W 122°46'0 0.8
2018-Aug-06 17:30N 45°36' W 122°47'6 5.7
2018-Aug-06 16:24N 45°37' W 122°38'3 4.9
2018-Aug-06 15:51N 45°36' W 122°34'  
Track history (hours):
 
Tides and Currents Weather Stations Pressure Air Temp Water Temp Dewpoint Dewpoint Depression Visibility Wind Speed Wind Dir Waves Ship Positions

Vancouver Fireboat 1

Last reported at 2018-Aug-14 02:56 UTC. Time now 2018-Aug-14 15:18 UTC.
Position N 45°37' W 122°38'.

Type: . MMSI: 338166967.

Date/timePositionNaut miles runAvg speedWind from/ knotsBaromVisibWave heightAir tempDewpointWater temp
2018-Aug-14 02:56N 45°37' W 122°38'1 3.1
2018-Aug-14 02:28N 45°37' W 122°40'912.6
2018-Aug-14 01:43N 45°34' W 122°27'517.9
2018-Aug-14 01:25N 45°36' W 122°34'3 3.6
2018-Aug-14 00:35N 45°37' W 122°38'1 6.0
2018-Aug-14 00:28N 45°37' W 122°39'1 1.5
2018-Aug-13 23:40N 45°37' W 122°40'210.7
2018-Aug-13 23:29N 45°36' W 122°38'  
2018-Aug-10 19:27N 45°37' W 122°38'2 2.3
2018-Aug-10 18:26N 45°37' W 122°41'0 0.1
2018-Aug-10 17:50N 45°37' W 122°41'3 2.3
2018-Aug-10 16:46N 45°37' W 122°38'4 9.8
2018-Aug-10 16:19N 45°35' W 122°32'  
2018-Aug-07 23:09N 45°37' W 122°38'0 0.0
2018-Aug-06 18:36N 45°37' W 122°38'213.3
2018-Aug-06 18:29N 45°37' W 122°40'5 9.6
2018-Aug-06 18:00N 45°35' W 122°46'0 0.8
2018-Aug-06 17:30N 45°36' W 122°47'6 5.7
2018-Aug-06 16:24N 45°37' W 122°38'3 4.9
2018-Aug-06 15:51N 45°36' W 122°34'  

Dump ship's entire track history